SWA1130 KDAL-KCOS
Flight info
| Callsign | SWA1130 |
|---|---|
| Flight time | 1h 34m |
| Altitude | 36000 |
| Route | KKITY5 HUDAD NOSEW LAA OZZZY5 |
| Aircraft | B38M/M-SDE1FGHILORVWXY/HB1 |
Departure
| Time | 2026-04-28 04:35 |
|---|---|
| Airport | Dallas Love Field (KDAL) |
Arrival
| Time | 2026-04-28 06:10 |
|---|---|
| Airport | City of Colorado Springs Municipal Airport (KCOS) |
| Time | Latitude | Longitude | Altitude | Speed | Heading |
|---|---|---|---|---|---|
| 2026-04-28 04:18 | 32.84649 | -96.84844 | 493 ft | 0 kts | 181° |
| 2026-04-28 04:27 | 32.84664 | -96.84844 | 486 ft | 3 kts | 180° |
| 2026-04-28 04:27 | 32.84685 | -96.84844 | 493 ft | 3 kts | 179° |
| 2026-04-28 04:27 | 32.84705 | -96.84844 | 486 ft | 3 kts | 181° |
| 2026-04-28 04:28 | 32.84725 | -96.84842 | 485 ft | 3 kts | 194° |
| 2026-04-28 04:28 | 32.84739 | -96.84835 | 492 ft | 3 kts | 233° |
| 2026-04-28 04:28 | 32.84743 | -96.84827 | 487 ft | 1 kts | 270° |
| 2026-04-28 04:31 | 32.84743 | -96.84835 | 492 ft | 3 kts | 270° |
| 2026-04-28 04:31 | 32.84744 | -96.84901 | 488 ft | 13 kts | 271° |
| 2026-04-28 04:31 | 32.84745 | -96.85051 | 493 ft | 22 kts | 271° |
| 2026-04-28 04:31 | 32.84746 | -96.85200 | 490 ft | 15 kts | 271° |
| 2026-04-28 04:32 | 32.84722 | -96.85317 | 493 ft | 15 kts | 208° |
| 2026-04-28 04:32 | 32.84648 | -96.85332 | 483 ft | 11 kts | 194° |
| 2026-04-28 04:32 | 32.84613 | -96.85415 | 483 ft | 15 kts | 276° |
| 2026-04-28 04:32 | 32.84660 | -96.85543 | 486 ft | 19 kts | 317° |
| 2026-04-28 04:33 | 32.84761 | -96.85658 | 484 ft | 20 kts | 315° |
| 2026-04-28 04:33 | 32.84871 | -96.85786 | 483 ft | 24 kts | 316° |
| 2026-04-28 04:33 | 32.84997 | -96.85933 | 486 ft | 24 kts | 315° |
| 2026-04-28 04:33 | 32.85087 | -96.86040 | 479 ft | 10 kts | 302° |
| 2026-04-28 04:34 | 32.85082 | -96.86131 | 482 ft | 13 kts | 242° |
| 2026-04-28 04:34 | 32.85009 | -96.86189 | 474 ft | 14 kts | 155° |
| 2026-04-28 04:34 | 32.84940 | -96.86116 | 482 ft | 32 kts | 136° |
| 2026-04-28 04:34 | 32.84567 | -96.85686 | 486 ft | 113 kts | 136° |
| 2026-04-28 04:35 | 32.83853 | -96.84870 | 587 ft | 166 kts | 136° |
| 2026-04-28 04:35 | 32.82991 | -96.83875 | 1331 ft | 175 kts | 136° |
| 2026-04-28 04:35 | 32.82108 | -96.82831 | 2150 ft | 184 kts | 134° |
| 2026-04-28 04:35 | 32.81173 | -96.81657 | 2673 ft | 211 kts | 132° |
| 2026-04-28 04:36 | 32.80101 | -96.80306 | 3252 ft | 237 kts | 136° |
| 2026-04-28 04:36 | 32.78974 | -96.78879 | 4345 ft | 243 kts | 137° |
| 2026-04-28 04:36 | 32.77793 | -96.77384 | 5242 ft | 255 kts | 137° |
| 2026-04-28 04:36 | 32.76526 | -96.75794 | 5504 ft | 269 kts | 137° |
| 2026-04-28 04:37 | 32.75208 | -96.74213 | 6210 ft | 268 kts | 139° |
| 2026-04-28 04:37 | 32.73857 | -96.72633 | 7167 ft | 274 kts | 139° |
| 2026-04-28 04:37 | 32.72414 | -96.71090 | 8125 ft | 280 kts | 149° |
| 2026-04-28 04:37 | 32.70593 | -96.70339 | 8890 ft | 281 kts | 183° |
| 2026-04-28 04:38 | 32.68730 | -96.70857 | 10028 ft | 268 kts | 205° |
| 2026-04-28 04:38 | 32.66989 | -96.71772 | 10849 ft | 280 kts | 209° |
| 2026-04-28 04:38 | 32.65231 | -96.72806 | 11671 ft | 286 kts | 210° |
| 2026-04-28 04:38 | 32.63447 | -96.73931 | 12454 ft | 289 kts | 216° |
| 2026-04-28 04:39 | 32.62016 | -96.75578 | 13088 ft | 297 kts | 241° |
| 2026-04-28 04:39 | 32.61396 | -96.77923 | 13839 ft | 306 kts | 262° |
| 2026-04-28 04:39 | 32.61319 | -96.80451 | 14784 ft | 309 kts | 268° |
| 2026-04-28 04:39 | 32.61369 | -96.83018 | 15575 ft | 315 kts | 269° |
| 2026-04-28 04:40 | 32.61450 | -96.85658 | 16251 ft | 321 kts | 269° |
| 2026-04-28 04:40 | 32.61509 | -96.88319 | 17044 ft | 324 kts | 268° |
| 2026-04-28 04:40 | 32.61535 | -96.91016 | 17682 ft | 331 kts | 268° |
| 2026-04-28 04:40 | 32.61550 | -96.93778 | 18234 ft | 339 kts | 268° |
| 2026-04-28 04:41 | 32.61566 | -96.96591 | 18638 ft | 351 kts | 268° |
| 2026-04-28 04:41 | 32.61573 | -96.98094 | 18990 ft | 351 kts | 268° |
| 2026-04-28 04:41 | 32.61583 | -97.01002 | 19595 ft | 355 kts | 268° |
| 2026-04-28 04:41 | 32.61592 | -97.03952 | 20190 ft | 359 kts | 268° |
| 2026-04-28 04:42 | 32.61600 | -97.06928 | 20787 ft | 363 kts | 268° |
| 2026-04-28 04:42 | 32.61604 | -97.09931 | 21434 ft | 365 kts | 268° |
| 2026-04-28 04:42 | 32.61614 | -97.12959 | 22007 ft | 368 kts | 268° |
| 2026-04-28 04:42 | 32.61622 | -97.16008 | 22586 ft | 371 kts | 268° |
| 2026-04-28 04:43 | 32.61627 | -97.19074 | 23142 ft | 374 kts | 268° |
| 2026-04-28 04:43 | 32.61631 | -97.22169 | 23691 ft | 376 kts | 268° |
| 2026-04-28 04:43 | 32.61634 | -97.25280 | 24206 ft | 380 kts | 269° |
| 2026-04-28 04:43 | 32.61644 | -97.28438 | 24761 ft | 383 kts | 270° |
| 2026-04-28 04:44 | 32.62103 | -97.31553 | 25342 ft | 387 kts | 286° |
| 2026-04-28 04:44 | 32.63358 | -97.34403 | 25889 ft | 396 kts | 301° |
| 2026-04-28 04:44 | 32.65232 | -97.36780 | 26395 ft | 403 kts | 310° |
| 2026-04-28 04:44 | 32.67282 | -97.39067 | 26820 ft | 405 kts | 310° |
| 2026-04-28 04:45 | 32.69347 | -97.41337 | 27307 ft | 407 kts | 311° |
| 2026-04-28 04:45 | 32.70006 | -97.42050 | 27442 ft | 408 kts | 310° |
| 2026-04-28 04:45 | 32.71831 | -97.44574 | 27854 ft | 398 kts | 296° |
| 2026-04-28 04:45 | 32.72992 | -97.47522 | 28201 ft | 397 kts | 291° |
| 2026-04-28 04:46 | 32.74253 | -97.50475 | 28614 ft | 401 kts | 293° |
| 2026-04-28 04:46 | 32.75560 | -97.53392 | 29103 ft | 400 kts | 293° |
| 2026-04-28 04:46 | 32.76893 | -97.56326 | 29469 ft | 403 kts | 294° |
| 2026-04-28 04:46 | 32.78232 | -97.59241 | 29835 ft | 405 kts | 294° |
| 2026-04-28 04:47 | 32.79590 | -97.62178 | 30211 ft | 405 kts | 294° |
| 2026-04-28 04:47 | 32.80949 | -97.65110 | 30654 ft | 404 kts | 294° |
| 2026-04-28 04:47 | 32.82303 | -97.68035 | 31211 ft | 402 kts | 294° |
| 2026-04-28 04:47 | 32.83646 | -97.70934 | 31753 ft | 398 kts | 294° |
| 2026-04-28 04:48 | 32.84974 | -97.73812 | 32243 ft | 396 kts | 294° |
| 2026-04-28 04:48 | 32.86297 | -97.76675 | 32721 ft | 394 kts | 294° |
| 2026-04-28 04:48 | 32.87611 | -97.79523 | 33192 ft | 391 kts | 294° |
| 2026-04-28 04:48 | 32.88909 | -97.82347 | 33699 ft | 386 kts | 293° |
| 2026-04-28 04:49 | 32.90189 | -97.85122 | 34113 ft | 387 kts | 294° |
| 2026-04-28 04:49 | 32.91480 | -97.87923 | 34613 ft | 384 kts | 293° |
| 2026-04-28 04:49 | 32.92762 | -97.90711 | 35039 ft | 383 kts | 293° |
| 2026-04-28 04:49 | 32.94041 | -97.93492 | 35420 ft | 383 kts | 293° |
| 2026-04-28 04:50 | 32.95318 | -97.96266 | 35750 ft | 383 kts | 293° |
| 2026-04-28 04:50 | 32.96594 | -97.99049 | 36123 ft | 382 kts | 293° |
| 2026-04-28 04:50 | 32.97867 | -98.01826 | 36476 ft | 381 kts | 293° |
| 2026-04-28 04:50 | 32.99137 | -98.04598 | 36832 ft | 379 kts | 293° |
| 2026-04-28 04:51 | 33.00395 | -98.07350 | 37129 ft | 377 kts | 293° |
| 2026-04-28 04:51 | 33.01642 | -98.10070 | 37347 ft | 378 kts | 293° |
| 2026-04-28 04:51 | 33.02901 | -98.12824 | 37645 ft | 377 kts | 293° |
| 2026-04-28 04:51 | 33.04157 | -98.15570 | 37903 ft | 378 kts | 293° |
| 2026-04-28 04:52 | 33.05413 | -98.18317 | 37881 ft | 376 kts | 293° |
| 2026-04-28 04:52 | 33.07905 | -98.23782 | 37912 ft | 375 kts | 292° |
| 2026-04-28 04:53 | 33.10382 | -98.29228 | 37898 ft | 373 kts | 292° |
| 2026-04-28 04:53 | 33.12836 | -98.34625 | 37866 ft | 371 kts | 293° |
| 2026-04-28 04:54 | 33.15291 | -98.40026 | 37883 ft | 370 kts | 292° |
| 2026-04-28 04:54 | 33.17737 | -98.45411 | 37892 ft | 369 kts | 292° |
| 2026-04-28 04:55 | 33.20177 | -98.50801 | 37900 ft | 369 kts | 292° |
| 2026-04-28 04:55 | 33.22612 | -98.56176 | 37904 ft | 367 kts | 292° |
| 2026-04-28 04:56 | 33.25048 | -98.61583 | 37854 ft | 369 kts | 292° |
| 2026-04-28 04:56 | 33.27476 | -98.66970 | 37883 ft | 369 kts | 292° |
| 2026-04-28 04:57 | 33.29894 | -98.72348 | 37885 ft | 367 kts | 292° |
| 2026-04-28 04:57 | 33.32297 | -98.77708 | 37904 ft | 368 kts | 292° |
| 2026-04-28 04:58 | 33.34718 | -98.83096 | 37853 ft | 366 kts | 292° |
| 2026-04-28 04:58 | 33.37127 | -98.88465 | 37884 ft | 367 kts | 292° |
| 2026-04-28 04:59 | 33.39533 | -98.93848 | 37905 ft | 368 kts | 291° |
| 2026-04-28 04:59 | 33.41941 | -98.99237 | 37903 ft | 366 kts | 291° |
| 2026-04-28 05:00 | 33.44338 | -99.04612 | 37904 ft | 365 kts | 291° |
| 2026-04-28 05:00 | 33.46727 | -99.09979 | 37937 ft | 366 kts | 291° |
| 2026-04-28 05:01 | 33.49112 | -99.15344 | 37919 ft | 364 kts | 291° |
| 2026-04-28 05:01 | 33.51495 | -99.20700 | 37892 ft | 363 kts | 291° |
| 2026-04-28 05:02 | 33.53854 | -99.26029 | 37904 ft | 363 kts | 291° |
| 2026-04-28 05:02 | 33.56216 | -99.31368 | 37904 ft | 362 kts | 291° |
| 2026-04-28 05:03 | 33.58584 | -99.36721 | 37904 ft | 363 kts | 291° |
| 2026-04-28 05:03 | 33.61058 | -99.41993 | 37866 ft | 371 kts | 300° |
| 2026-04-28 05:03 | 33.62973 | -99.44144 | 37902 ft | 386 kts | 313° |
| 2026-04-28 05:04 | 33.65182 | -99.46031 | 37901 ft | 390 kts | 313° |
| 2026-04-28 05:04 | 33.68893 | -99.49108 | 37924 ft | 391 kts | 314° |
| 2026-04-28 05:05 | 33.73425 | -99.52775 | 37890 ft | 392 kts | 314° |
| 2026-04-28 05:05 | 33.77938 | -99.56392 | 37904 ft | 394 kts | 314° |
| 2026-04-28 05:06 | 33.82485 | -99.60041 | 37900 ft | 391 kts | 314° |
| 2026-04-28 05:06 | 33.86998 | -99.63665 | 37910 ft | 391 kts | 314° |
| 2026-04-28 05:07 | 33.90562 | -99.66530 | 37910 ft | 390 kts | 313° |
| 2026-04-28 05:07 | 33.95096 | -99.70177 | 37921 ft | 392 kts | 313° |
| 2026-04-28 05:08 | 33.99622 | -99.73823 | 37927 ft | 391 kts | 313° |
| 2026-04-28 05:08 | 34.04142 | -99.77470 | 37936 ft | 390 kts | 313° |
| 2026-04-28 05:09 | 34.08660 | -99.81124 | 37930 ft | 390 kts | 313° |
| 2026-04-28 05:09 | 34.13155 | -99.84756 | 37925 ft | 391 kts | 313° |
| 2026-04-28 05:10 | 34.17665 | -99.88409 | 37917 ft | 390 kts | 313° |
| 2026-04-28 05:10 | 34.22194 | -99.92078 | 37918 ft | 391 kts | 313° |
| 2026-04-28 05:11 | 34.26708 | -99.95747 | 37913 ft | 390 kts | 313° |
| 2026-04-28 05:11 | 34.31211 | -99.99412 | 37928 ft | 390 kts | 313° |
| 2026-04-28 05:12 | 34.35711 | -100.03072 | 37920 ft | 390 kts | 313° |
| 2026-04-28 05:12 | 34.40214 | -100.06748 | 37922 ft | 391 kts | 313° |
| 2026-04-28 05:13 | 34.44733 | -100.10436 | 37910 ft | 393 kts | 313° |
| 2026-04-28 05:13 | 34.49263 | -100.14137 | 37964 ft | 393 kts | 313° |
| 2026-04-28 05:14 | 34.53764 | -100.17820 | 37925 ft | 391 kts | 314° |
| 2026-04-28 05:14 | 34.58282 | -100.21524 | 37941 ft | 394 kts | 313° |
| 2026-04-28 05:15 | 34.62813 | -100.25243 | 37960 ft | 393 kts | 313° |
| 2026-04-28 05:15 | 34.67351 | -100.28972 | 37939 ft | 394 kts | 313° |
| 2026-04-28 05:16 | 34.71877 | -100.32696 | 37952 ft | 395 kts | 313° |
| 2026-04-28 05:16 | 34.76429 | -100.36444 | 37937 ft | 395 kts | 314° |
| 2026-04-28 05:17 | 34.83265 | -100.42093 | 37973 ft | 397 kts | 313° |
| 2026-04-28 05:17 | 34.87857 | -100.45887 | 37954 ft | 398 kts | 313° |
| 2026-04-28 05:18 | 34.92398 | -100.49645 | 37983 ft | 398 kts | 313° |
| 2026-04-28 05:18 | 34.96986 | -100.53448 | 37932 ft | 397 kts | 313° |
| 2026-04-28 05:19 | 35.01584 | -100.57250 | 37936 ft | 400 kts | 313° |
| 2026-04-28 05:19 | 35.06166 | -100.61074 | 37970 ft | 401 kts | 313° |
| 2026-04-28 05:20 | 35.10772 | -100.64915 | 37967 ft | 397 kts | 313° |
| 2026-04-28 05:20 | 35.15341 | -100.68700 | 37940 ft | 400 kts | 313° |
| 2026-04-28 05:21 | 35.19939 | -100.72557 | 37987 ft | 401 kts | 313° |
| 2026-04-28 05:21 | 35.24531 | -100.76399 | 37956 ft | 400 kts | 313° |
| 2026-04-28 05:22 | 35.29149 | -100.80264 | 37975 ft | 403 kts | 313° |
| 2026-04-28 05:22 | 35.33799 | -100.84161 | 37986 ft | 405 kts | 313° |
| 2026-04-28 05:23 | 35.38396 | -100.88021 | 38006 ft | 401 kts | 313° |
| 2026-04-28 05:23 | 35.43020 | -100.91908 | 37951 ft | 403 kts | 313° |
| 2026-04-28 05:24 | 35.47636 | -100.95791 | 37964 ft | 404 kts | 314° |
| 2026-04-28 05:24 | 35.52328 | -100.99618 | 37953 ft | 414 kts | 320° |
| 2026-04-28 05:25 | 35.57485 | -101.02777 | 38014 ft | 417 kts | 321° |
| 2026-04-28 05:25 | 35.62658 | -101.05942 | 38017 ft | 418 kts | 321° |
| 2026-04-28 05:26 | 35.67880 | -101.09132 | 38014 ft | 418 kts | 321° |
| 2026-04-28 05:26 | 35.73106 | -101.12323 | 38014 ft | 418 kts | 321° |
| 2026-04-28 05:27 | 35.78332 | -101.15526 | 37998 ft | 418 kts | 321° |
| 2026-04-28 05:27 | 35.83563 | -101.18731 | 37974 ft | 420 kts | 321° |
| 2026-04-28 05:28 | 35.88778 | -101.21936 | 37968 ft | 421 kts | 321° |
| 2026-04-28 05:28 | 35.94027 | -101.25162 | 37925 ft | 421 kts | 321° |
| 2026-04-28 05:29 | 35.99265 | -101.28389 | 38003 ft | 422 kts | 321° |
| 2026-04-28 05:29 | 36.04525 | -101.31643 | 37996 ft | 424 kts | 321° |
| 2026-04-28 05:30 | 36.09824 | -101.34907 | 37979 ft | 427 kts | 321° |
| 2026-04-28 05:30 | 36.15126 | -101.38190 | 37988 ft | 427 kts | 321° |
| 2026-04-28 05:31 | 36.20439 | -101.41479 | 37992 ft | 427 kts | 321° |
| 2026-04-28 05:31 | 36.25746 | -101.44772 | 38010 ft | 426 kts | 321° |
| 2026-04-28 05:32 | 36.31048 | -101.48067 | 37966 ft | 426 kts | 321° |
| 2026-04-28 05:32 | 36.36360 | -101.51373 | 37983 ft | 427 kts | 321° |
| 2026-04-28 05:33 | 36.41656 | -101.54677 | 37999 ft | 426 kts | 321° |
| 2026-04-28 05:33 | 36.46947 | -101.57974 | 38017 ft | 426 kts | 321° |
| 2026-04-28 05:34 | 36.52255 | -101.61297 | 37970 ft | 425 kts | 321° |
| 2026-04-28 05:34 | 36.57544 | -101.64612 | 37985 ft | 427 kts | 321° |
| 2026-04-28 05:35 | 36.62843 | -101.67948 | 37962 ft | 427 kts | 321° |
| 2026-04-28 05:35 | 36.68170 | -101.71279 | 37988 ft | 428 kts | 321° |
| 2026-04-28 05:36 | 36.73427 | -101.74589 | 37955 ft | 426 kts | 321° |
| 2026-04-28 05:36 | 36.78747 | -101.77941 | 37993 ft | 427 kts | 321° |
| 2026-04-28 05:37 | 36.84047 | -101.81288 | 38006 ft | 428 kts | 321° |
| 2026-04-28 05:37 | 36.89357 | -101.84645 | 38032 ft | 428 kts | 321° |
| 2026-04-28 05:38 | 36.94665 | -101.88006 | 38050 ft | 428 kts | 321° |
| 2026-04-28 05:38 | 36.99904 | -101.91421 | 38057 ft | 423 kts | 318° |
| 2026-04-28 05:39 | 37.02285 | -101.93539 | 38026 ft | 405 kts | 306° |
| 2026-04-28 05:39 | 37.04057 | -101.96086 | 38032 ft | 384 kts | 292° |
| 2026-04-28 05:39 | 37.06924 | -102.01756 | 38041 ft | 390 kts | 295° |
| 2026-04-28 05:40 | 37.10051 | -102.07326 | 38069 ft | 392 kts | 296° |
| 2026-04-28 05:40 | 37.13218 | -102.12890 | 38044 ft | 391 kts | 296° |
| 2026-04-28 05:41 | 37.16377 | -102.18425 | 37972 ft | 388 kts | 296° |
| 2026-04-28 05:41 | 37.19547 | -102.23995 | 38043 ft | 394 kts | 296° |
| 2026-04-28 05:42 | 37.22699 | -102.29529 | 38048 ft | 391 kts | 296° |
| 2026-04-28 05:42 | 37.25860 | -102.35102 | 38041 ft | 391 kts | 296° |
| 2026-04-28 05:43 | 37.29028 | -102.40686 | 38056 ft | 391 kts | 296° |
| 2026-04-28 05:43 | 37.32198 | -102.46281 | 38013 ft | 393 kts | 296° |
| 2026-04-28 05:44 | 37.35365 | -102.51875 | 38036 ft | 394 kts | 296° |
| 2026-04-28 05:44 | 37.38525 | -102.57482 | 38040 ft | 391 kts | 296° |
| 2026-04-28 05:45 | 37.41658 | -102.63052 | 38037 ft | 393 kts | 296° |
| 2026-04-28 05:45 | 37.44811 | -102.68660 | 38051 ft | 393 kts | 296° |
| 2026-04-28 05:46 | 37.47957 | -102.74274 | 38082 ft | 393 kts | 295° |
| 2026-04-28 05:46 | 37.51112 | -102.79897 | 38043 ft | 391 kts | 295° |
| 2026-04-28 05:47 | 37.54244 | -102.85495 | 38026 ft | 389 kts | 295° |
| 2026-04-28 05:47 | 37.57350 | -102.91058 | 38044 ft | 391 kts | 295° |
| 2026-04-28 05:48 | 37.60459 | -102.96640 | 38034 ft | 389 kts | 295° |
| 2026-04-28 05:48 | 37.63598 | -103.02236 | 38008 ft | 390 kts | 295° |
| 2026-04-28 05:49 | 37.66720 | -103.07891 | 38037 ft | 392 kts | 295° |
| 2026-04-28 05:49 | 37.69842 | -103.13525 | 37969 ft | 392 kts | 295° |
| 2026-04-28 05:50 | 37.72949 | -103.19130 | 38027 ft | 390 kts | 295° |
| 2026-04-28 05:50 | 37.76012 | -103.24684 | 37443 ft | 384 kts | 295° |
| 2026-04-28 05:51 | 37.77542 | -103.27451 | 36956 ft | 381 kts | 295° |
| 2026-04-28 05:51 | 37.78564 | -103.29295 | 36716 ft | 375 kts | 295° |
| 2026-04-28 05:51 | 37.80040 | -103.31967 | 36261 ft | 368 kts | 295° |
| 2026-04-28 05:51 | 37.81485 | -103.34593 | 35632 ft | 371 kts | 295° |
| 2026-04-28 05:52 | 37.82970 | -103.37291 | 34853 ft | 376 kts | 295° |
| 2026-04-28 05:52 | 37.84470 | -103.40017 | 34116 ft | 379 kts | 295° |
| 2026-04-28 05:52 | 37.85985 | -103.42769 | 33458 ft | 383 kts | 295° |
| 2026-04-28 05:52 | 37.87509 | -103.45545 | 32690 ft | 385 kts | 295° |
| 2026-04-28 05:53 | 37.89045 | -103.48340 | 31906 ft | 387 kts | 295° |
| 2026-04-28 05:53 | 37.90579 | -103.51134 | 31140 ft | 387 kts | 295° |
| 2026-04-28 05:53 | 37.92120 | -103.53954 | 30340 ft | 391 kts | 295° |
| 2026-04-28 05:53 | 37.93686 | -103.56807 | 29489 ft | 396 kts | 295° |
| 2026-04-28 05:54 | 37.95265 | -103.59695 | 28634 ft | 402 kts | 295° |
| 2026-04-28 05:54 | 37.96871 | -103.62636 | 27962 ft | 409 kts | 296° |
| 2026-04-28 05:54 | 37.98497 | -103.65611 | 27286 ft | 412 kts | 296° |
| 2026-04-28 05:54 | 38.00120 | -103.68580 | 26564 ft | 407 kts | 296° |
| 2026-04-28 05:55 | 38.01693 | -103.71469 | 25975 ft | 401 kts | 297° |
| 2026-04-28 05:55 | 38.03266 | -103.74360 | 25341 ft | 396 kts | 297° |
| 2026-04-28 05:55 | 38.04825 | -103.77227 | 24709 ft | 390 kts | 297° |
| 2026-04-28 05:55 | 38.06374 | -103.80085 | 24050 ft | 396 kts | 297° |
| 2026-04-28 05:56 | 38.07947 | -103.82979 | 23360 ft | 398 kts | 298° |
| 2026-04-28 05:56 | 38.09518 | -103.85877 | 22785 ft | 398 kts | 297° |
| 2026-04-28 05:56 | 38.11088 | -103.88772 | 22145 ft | 397 kts | 297° |
| 2026-04-28 05:56 | 38.12648 | -103.91653 | 21513 ft | 395 kts | 298° |
| 2026-04-28 05:57 | 38.14202 | -103.94526 | 20878 ft | 394 kts | 298° |
| 2026-04-28 05:57 | 38.15755 | -103.97396 | 20250 ft | 392 kts | 297° |
| 2026-04-28 05:57 | 38.17298 | -104.00256 | 19625 ft | 393 kts | 298° |
| 2026-04-28 05:57 | 38.18848 | -104.03129 | 19009 ft | 392 kts | 298° |
| 2026-04-28 05:58 | 38.20381 | -104.05973 | 18398 ft | 388 kts | 298° |
| 2026-04-28 05:58 | 38.21899 | -104.08792 | 17789 ft | 385 kts | 298° |
| 2026-04-28 05:58 | 38.23384 | -104.11554 | 17191 ft | 381 kts | 298° |
| 2026-04-28 05:58 | 38.24898 | -104.14370 | 16539 ft | 381 kts | 298° |
| 2026-04-28 05:59 | 38.26393 | -104.17154 | 15919 ft | 380 kts | 298° |
| 2026-04-28 05:59 | 38.27880 | -104.19925 | 15350 ft | 379 kts | 298° |
| 2026-04-28 05:59 | 38.29349 | -104.22666 | 14760 ft | 379 kts | 299° |
| 2026-04-28 05:59 | 38.30833 | -104.25432 | 14206 ft | 377 kts | 299° |
| 2026-04-28 06:00 | 38.32305 | -104.28181 | 13638 ft | 375 kts | 299° |
| 2026-04-28 06:00 | 38.33772 | -104.30926 | 13133 ft | 373 kts | 299° |
| 2026-04-28 06:00 | 38.35217 | -104.33627 | 12871 ft | 361 kts | 299° |
| 2026-04-28 06:00 | 38.36593 | -104.36203 | 12721 ft | 343 kts | 299° |
| 2026-04-28 06:01 | 38.37905 | -104.38664 | 12558 ft | 329 kts | 299° |
| 2026-04-28 06:01 | 38.39167 | -104.41029 | 12369 ft | 315 kts | 299° |
| 2026-04-28 06:01 | 38.40373 | -104.43295 | 12206 ft | 303 kts | 298° |
| 2026-04-28 06:01 | 38.41534 | -104.45472 | 12058 ft | 289 kts | 300° |
| 2026-04-28 06:02 | 38.42672 | -104.47521 | 11937 ft | 276 kts | 297° |
| 2026-04-28 06:02 | 38.43721 | -104.49542 | 11614 ft | 271 kts | 298° |
| 2026-04-28 06:02 | 38.44752 | -104.51502 | 11510 ft | 261 kts | 298° |
| 2026-04-28 06:02 | 38.45739 | -104.53372 | 11450 ft | 249 kts | 299° |
| 2026-04-28 06:03 | 38.46675 | -104.55139 | 11350 ft | 239 kts | 298° |
| 2026-04-28 06:03 | 38.47610 | -104.56902 | 11229 ft | 242 kts | 299° |
| 2026-04-28 06:03 | 38.48551 | -104.58678 | 11163 ft | 244 kts | 299° |
| 2026-04-28 06:03 | 38.49517 | -104.60499 | 11142 ft | 248 kts | 299° |
| 2026-04-28 06:04 | 38.50481 | -104.62323 | 10854 ft | 248 kts | 300° |
| 2026-04-28 06:04 | 38.51459 | -104.64134 | 10556 ft | 248 kts | 304° |
| 2026-04-28 06:04 | 38.52782 | -104.65576 | 10128 ft | 253 kts | 330° |
| 2026-04-28 06:04 | 38.54372 | -104.66524 | 9822 ft | 253 kts | 337° |
| 2026-04-28 06:05 | 38.55945 | -104.67554 | 9484 ft | 253 kts | 326° |
| 2026-04-28 06:05 | 38.57426 | -104.68725 | 9181 ft | 254 kts | 337° |
| 2026-04-28 06:05 | 38.59128 | -104.69194 | 8963 ft | 251 kts | 3° |
| 2026-04-28 06:05 | 38.60874 | -104.69100 | 8770 ft | 249 kts | 8° |
| 2026-04-28 06:06 | 38.62546 | -104.68915 | 8694 ft | 236 kts | 8° |
| 2026-04-28 06:06 | 38.64169 | -104.68735 | 8396 ft | 228 kts | 8° |
| 2026-04-28 06:06 | 38.65702 | -104.68658 | 8156 ft | 212 kts | 4° |
| 2026-04-28 06:06 | 38.67116 | -104.68636 | 7990 ft | 198 kts | 3° |
| 2026-04-28 06:07 | 38.68466 | -104.68627 | 7702 ft | 189 kts | 2° |
| 2026-04-28 06:07 | 38.69751 | -104.68627 | 7442 ft | 178 kts | 2° |
| 2026-04-28 06:07 | 38.70965 | -104.68614 | 7185 ft | 172 kts | 1° |
| 2026-04-28 06:07 | 38.72149 | -104.68605 | 6968 ft | 169 kts | 0° |
| 2026-04-28 06:08 | 38.73310 | -104.68610 | 6832 ft | 160 kts | 1° |
| 2026-04-28 06:08 | 38.74385 | -104.68593 | 6691 ft | 155 kts | 358° |
| 2026-04-28 06:08 | 38.75477 | -104.68589 | 6572 ft | 158 kts | 360° |
| 2026-04-28 06:08 | 38.76580 | -104.68581 | 6438 ft | 159 kts | 359° |
| 2026-04-28 06:09 | 38.77687 | -104.68582 | 6217 ft | 157 kts | 359° |
| 2026-04-28 06:09 | 38.78706 | -104.68581 | 6129 ft | 122 kts | 0° |
| 2026-04-28 06:09 | 38.79337 | -104.68578 | 6139 ft | 58 kts | 0° |
| 2026-04-28 06:09 | 38.79707 | -104.68578 | 6145 ft | 51 kts | 0° |
| 2026-04-28 06:10 | 38.80034 | -104.68596 | 6150 ft | 42 kts | 351° |
| 2026-04-28 06:10 | 38.80228 | -104.68691 | 6153 ft | 19 kts | 331° |
| 2026-04-28 06:10 | 38.80277 | -104.68824 | 6154 ft | 19 kts | 271° |
| 2026-04-28 06:10 | 38.80278 | -104.68999 | 6154 ft | 21 kts | 270° |
| 2026-04-28 06:11 | 38.80279 | -104.69225 | 6154 ft | 29 kts | 270° |
| 2026-04-28 06:11 | 38.80280 | -104.69488 | 6154 ft | 30 kts | 270° |
| 2026-04-28 06:11 | 38.80277 | -104.69680 | 6154 ft | 16 kts | 256° |
| 2026-04-28 06:11 | 38.80178 | -104.69725 | 6152 ft | 17 kts | 181° |
| 2026-04-28 06:12 | 38.80073 | -104.69759 | 6150 ft | 13 kts | 250° |
| 2026-04-28 06:12 | 38.80075 | -104.69865 | 6150 ft | 13 kts | 270° |
| 2026-04-28 06:12 | 38.80009 | -104.69922 | 6149 ft | 8 kts | 179° |
| 2026-04-28 06:12 | 38.79982 | -104.69958 | 6148 ft | 7 kts | 255° |
| 2026-04-28 06:13 | 38.79976 | -104.70001 | 6147 ft | 2 kts | 259° |
| 2026-04-28 06:13 | 38.79973 | -104.70020 | 6147 ft | 0 kts | 259° |